sensor_id;sensor_type;location;lat;lon;timestamp;pressure;altitude;pressure_sealevel;temperature;humidity
55010;BME280;40903;51.638;7.528;2022-07-17T00:00:18;102091.78;;;14.20;65.69
55010;BME280;40903;51.638;7.528;2022-07-17T00:02:44;102082.97;;;14.18;66.16
55010;BME280;40903;51.638;7.528;2022-07-17T00:05:09;102089.84;;;14.15;66.04
55010;BME280;40903;51.638;7.528;2022-07-17T00:07:35;102091.75;;;14.15;66.34
55010;BME280;40903;51.638;7.528;2022-07-17T00:10:00;102078.34;;;14.13;66.31
55010;BME280;40903;51.638;7.528;2022-07-17T00:12:25;102091.47;;;14.11;66.25
55010;BME280;40903;51.638;7.528;2022-07-17T00:14:51;102087.94;;;14.11;66.33
55010;BME280;40903;51.638;7.528;2022-07-17T00:17:16;102089.03;;;14.10;66.67
55010;BME280;40903;51.638;7.528;2022-07-17T00:19:42;102081.38;;;14.07;66.21
55010;BME280;40903;51.638;7.528;2022-07-17T00:22:08;102086.31;;;14.05;66.43
55010;BME280;40903;51.638;7.528;2022-07-17T00:24:33;102086.84;;;14.02;66.66
55010;BME280;40903;51.638;7.528;2022-07-17T00:26:59;102088.53;;;13.98;66.93
55010;BME280;40903;51.638;7.528;2022-07-17T00:29:24;102079.22;;;13.94;66.97
55010;BME280;40903;51.638;7.528;2022-07-17T00:31:49;102078.38;;;13.93;66.93
55010;BME280;40903;51.638;7.528;2022-07-17T00:34:15;102078.16;;;13.90;66.91
55010;BME280;40903;51.638;7.528;2022-07-17T00:36:41;102081.41;;;13.87;67.17
55010;BME280;40903;51.638;7.528;2022-07-17T00:39:06;102076.50;;;13.84;67.33
55010;BME280;40903;51.638;7.528;2022-07-17T00:41:32;102082.56;;;13.81;67.39
55010;BME280;40903;51.638;7.528;2022-07-17T00:44:09;102082.81;;;13.79;67.46
55010;BME280;40903;51.638;7.528;2022-07-17T00:46:35;102074.34;;;13.76;67.63
55010;BME280;40903;51.638;7.528;2022-07-17T00:49:01;102079.00;;;13.75;67.65
55010;BME280;40903;51.638;7.528;2022-07-17T00:51:27;102076.81;;;13.73;67.71
55010;BME280;40903;51.638;7.528;2022-07-17T00:53:52;102076.28;;;13.71;67.88
55010;BME280;40903;51.638;7.528;2022-07-17T00:56:21;102074.91;;;13.68;68.34
55010;BME280;40903;51.638;7.528;2022-07-17T00:58:48;102079.00;;;13.66;68.57
55010;BME280;40903;51.638;7.528;2022-07-17T01:01:14;102084.25;;;13.62;68.43
55010;BME280;40903;51.638;7.528;2022-07-17T01:03:39;102086.44;;;13.60;68.51
55010;BME280;40903;51.638;7.528;2022-07-17T01:06:04;102091.34;;;13.58;68.54
55010;BME280;40903;51.638;7.528;2022-07-17T01:08:31;102092.47;;;13.57;68.41
55010;BME280;40903;51.638;7.528;2022-07-17T01:10:57;102089.19;;;13.55;68.58
55010;BME280;40903;51.638;7.528;2022-07-17T01:13:22;102090.56;;;13.53;68.46
55010;BME280;40903;51.638;7.528;2022-07-17T01:15:48;102093.56;;;13.51;68.59
55010;BME280;40903;51.638;7.528;2022-07-17T01:18:14;102089.22;;;13.45;69.04
55010;BME280;40903;51.638;7.528;2022-07-17T01:20:42;102091.38;;;13.43;69.03
55010;BME280;40903;51.638;7.528;2022-07-17T01:23:09;102096.59;;;13.40;69.28
55010;BME280;40903;51.638;7.528;2022-07-17T01:25:35;102089.50;;;13.39;69.22
55010;BME280;40903;51.638;7.528;2022-07-17T01:28:01;102092.50;;;13.37;69.72
55010;BME280;40903;51.638;7.528;2022-07-17T01:30:27;102087.03;;;13.32;69.63
55010;BME280;40903;51.638;7.528;2022-07-17T01:32:52;102082.91;;;13.30;69.78
55010;BME280;40903;51.638;7.528;2022-07-17T01:35:18;102085.38;;;13.26;70.04
55010;BME280;40903;51.638;7.528;2022-07-17T01:37:44;102083.19;;;13.23;70.19
55010;BME280;40903;51.638;7.528;2022-07-17T01:40:11;102077.16;;;13.21;70.01
55010;BME280;40903;51.638;7.528;2022-07-17T01:42:39;102073.03;;;13.19;70.00
55010;BME280;40903;51.638;7.528;2022-07-17T01:45:05;102071.97;;;13.15;70.23
55010;BME280;40903;51.638;7.528;2022-07-17T01:47:31;102082.38;;;13.13;70.45
55010;BME280;40903;51.638;7.528;2022-07-17T01:49:57;102087.56;;;13.09;70.71
55010;BME280;40903;51.638;7.528;2022-07-17T01:52:24;102079.66;;;13.08;70.72
55010;BME280;40903;51.638;7.528;2022-07-17T01:54:50;102080.47;;;13.03;71.08
55010;BME280;40903;51.638;7.528;2022-07-17T01:57:16;102084.28;;;13.02;70.99
55010;BME280;40903;51.638;7.528;2022-07-17T01:59:42;102081.56;;;13.02;70.84
55010;BME280;40903;51.638;7.528;2022-07-17T02:02:07;102076.06;;;13.02;70.77
55010;BME280;40903;51.638;7.528;2022-07-17T02:04:34;102073.34;;;13.02;70.94
55010;BME280;40903;51.638;7.528;2022-07-17T02:07:00;102064.56;;;13.00;70.94
55010;BME280;40903;51.638;7.528;2022-07-17T02:09:26;102071.97;;;13.00;71.17
55010;BME280;40903;51.638;7.528;2022-07-17T02:11:51;102070.31;;;12.99;71.30
55010;BME280;40903;51.638;7.528;2022-07-17T02:14:17;102067.84;;;12.97;71.38
55010;BME280;40903;51.638;7.528;2022-07-17T02:16:42;102068.38;;;12.94;71.37
55010;BME280;40903;51.638;7.528;2022-07-17T02:19:08;102063.44;;;12.91;71.65
55010;BME280;40903;51.638;7.528;2022-07-17T02:21:33;102062.06;;;12.89;71.77
55010;BME280;40903;51.638;7.528;2022-07-17T02:23:58;102068.09;;;12.86;72.03
55010;BME280;40903;51.638;7.528;2022-07-17T02:26:24;102065.06;;;12.82;72.27
55010;BME280;40903;51.638;7.528;2022-07-17T02:28:49;102069.72;;;12.82;72.17
55010;BME280;40903;51.638;7.528;2022-07-17T02:31:14;102074.66;;;12.80;72.16
55010;BME280;40903;51.638;7.528;2022-07-17T02:33:40;102075.75;;;12.79;72.22
55010;BME280;40903;51.638;7.528;2022-07-17T02:36:05;102075.22;;;12.77;72.28
55010;BME280;40903;51.638;7.528;2022-07-17T02:38:31;102080.94;;;12.75;72.31
55010;BME280;40903;51.638;7.528;2022-07-17T02:40:56;102080.66;;;12.72;72.39
55010;BME280;40903;51.638;7.528;2022-07-17T02:43:22;102073.81;;;12.69;72.63
55010;BME280;40903;51.638;7.528;2022-07-17T02:45:47;102069.72;;;12.67;72.82
55010;BME280;40903;51.638;7.528;2022-07-17T02:48:12;102080.38;;;12.63;73.11
55010;BME280;40903;51.638;7.528;2022-07-17T02:50:38;102072.16;;;12.58;73.34
55010;BME280;40903;51.638;7.528;2022-07-17T02:53:03;102077.59;;;12.53;73.81
55010;BME280;40903;51.638;7.528;2022-07-17T02:55:28;102085.53;;;12.50;74.02
55010;BME280;40903;51.638;7.528;2022-07-17T02:57:54;102081.69;;;12.46;74.50
55010;BME280;40903;51.638;7.528;2022-07-17T03:00:19;102091.28;;;12.43;74.89
55010;BME280;40903;51.638;7.528;2022-07-17T03:02:46;102085.75;;;12.38;75.18
55010;BME280;40903;51.638;7.528;2022-07-17T03:05:13;102079.72;;;12.31;75.22
55010;BME280;40903;51.638;7.528;2022-07-17T03:07:39;102078.63;;;12.27;75.13
55010;BME280;40903;51.638;7.528;2022-07-17T03:10:05;102087.63;;;12.23;75.51
55010;BME280;40903;51.638;7.528;2022-07-17T03:12:31;102082.16;;;12.18;75.63
55010;BME280;40903;51.638;7.528;2022-07-17T03:14:56;102076.66;;;12.13;75.69
55010;BME280;40903;51.638;7.528;2022-07-17T03:17:21;102086.47;;;12.09;75.85
55010;BME280;40903;51.638;7.528;2022-07-17T03:19:47;102087.28;;;12.04;76.26
55010;BME280;40903;51.638;7.528;2022-07-17T03:22:12;102085.34;;;12.00;76.65
55010;BME280;40903;51.638;7.528;2022-07-17T03:24:37;102086.41;;;11.94;77.02
55010;BME280;40903;51.638;7.528;2022-07-17T03:27:03;102089.94;;;11.89;77.15
55010;BME280;40903;51.638;7.528;2022-07-17T03:29:28;102094.31;;;11.85;77.31
55010;BME280;40903;51.638;7.528;2022-07-17T03:31:53;102101.09;;;11.83;77.83
55010;BME280;40903;51.638;7.528;2022-07-17T03:34:19;102109.84;;;11.80;78.17
55010;BME280;40903;51.638;7.528;2022-07-17T03:36:44;102106.00;;;11.76;78.51
55010;BME280;40903;51.638;7.528;2022-07-17T03:39:10;102094.78;;;11.73;78.54
55010;BME280;40903;51.638;7.528;2022-07-17T03:41:35;102102.41;;;11.71;78.75
55010;BME280;40903;51.638;7.528;2022-07-17T03:44:00;102106.47;;;11.68;78.74
55010;BME280;40903;51.638;7.528;2022-07-17T03:46:26;102106.75;;;11.67;79.38
55010;BME280;40903;51.638;7.528;2022-07-17T03:48:52;102103.47;;;11.65;79.55
55010;BME280;40903;51.638;7.528;2022-07-17T03:51:17;102106.47;;;11.63;79.99
55010;BME280;40903;51.638;7.528;2022-07-17T03:53:43;102103.19;;;11.61;80.08
55010;BME280;40903;51.638;7.528;2022-07-17T03:56:08;102101.78;;;11.59;80.65
55010;BME280;40903;51.638;7.528;2022-07-17T03:58:34;102096.59;;;11.57;80.81
55010;BME280;40903;51.638;7.528;2022-07-17T04:00:59;102104.16;;;11.55;81.13
55010;BME280;40903;51.638;7.528;2022-07-17T04:03:25;102097.91;;;11.55;81.38
55010;BME280;40903;51.638;7.528;2022-07-17T04:05:50;102105.25;;;11.54;81.64
55010;BME280;40903;51.638;7.528;2022-07-17T04:08:16;102105.25;;;11.54;82.14
55010;BME280;40903;51.638;7.528;2022-07-17T04:10:41;102108.00;;;11.54;82.19
55010;BME280;40903;51.638;7.528;2022-07-17T04:13:07;102111.00;;;11.53;82.39
55010;BME280;40903;51.638;7.528;2022-07-17T04:15:32;102116.47;;;11.53;82.41
55010;BME280;40903;51.638;7.528;2022-07-17T04:18:16;102118.38;;;11.52;82.52
55010;BME280;40903;51.638;7.528;2022-07-17T04:20:42;102110.16;;;11.52;82.58
55010;BME280;40903;51.638;7.528;2022-07-17T04:23:07;102115.63;;;11.52;82.81
55010;BME280;40903;51.638;7.528;2022-07-17T04:25:33;102108.28;;;11.53;82.91
55010;BME280;40903;51.638;7.528;2022-07-17T04:27:58;102115.38;;;11.54;83.13
55010;BME280;40903;51.638;7.528;2022-07-17T04:30:24;102111.81;;;11.53;83.62
55010;BME280;40903;51.638;7.528;2022-07-17T04:32:49;102102.81;;;11.53;83.67
55010;BME280;40903;51.638;7.528;2022-07-17T04:35:14;102101.22;;;11.57;83.88
55010;BME280;40903;51.638;7.528;2022-07-17T04:37:40;102089.22;;;11.58;84.41
55010;BME280;40903;51.638;7.528;2022-07-17T04:40:05;102097.72;;;11.61;84.73
55010;BME280;40903;51.638;7.528;2022-07-17T04:42:31;102094.69;;;11.63;84.90
55010;BME280;40903;51.638;7.528;2022-07-17T04:44:56;102102.38;;;11.66;84.52
55010;BME280;40903;51.638;7.528;2022-07-17T04:47:22;102096.66;;;11.67;84.21
55010;BME280;40903;51.638;7.528;2022-07-17T04:49:47;102090.94;;;11.69;83.83
55010;BME280;40903;51.638;7.528;2022-07-17T04:52:12;102101.31;;;11.72;83.55
55010;BME280;40903;51.638;7.528;2022-07-17T04:54:38;102108.44;;;11.77;83.37
55010;BME280;40903;51.638;7.528;2022-07-17T04:57:03;102106.31;;;11.84;83.23
55010;BME280;40903;51.638;7.528;2022-07-17T04:59:28;102115.09;;;11.91;82.89
55010;BME280;40903;51.638;7.528;2022-07-17T05:01:54;102117.06;;;12.01;82.92
55010;BME280;40903;51.638;7.528;2022-07-17T05:04:19;102119.03;;;12.10;82.80
55010;BME280;40903;51.638;7.528;2022-07-17T05:06:45;102128.13;;;12.26;82.60
55010;BME280;40903;51.638;7.528;2022-07-17T05:09:11;102121.38;;;12.43;82.04
55010;BME280;40903;51.638;7.528;2022-07-17T05:11:36;102123.34;;;12.63;81.33
55010;BME280;40903;51.638;7.528;2022-07-17T05:14:01;102126.38;;;12.81;80.64
55010;BME280;40903;51.638;7.528;2022-07-17T05:16:27;102133.84;;;13.01;79.50
55010;BME280;40903;51.638;7.528;2022-07-17T05:18:53;102147.84;;;13.24;77.83
55010;BME280;40903;51.638;7.528;2022-07-17T05:21:18;102138.53;;;13.45;76.85
55010;BME280;40903;51.638;7.528;2022-07-17T05:23:43;102139.88;;;13.63;73.72
55010;BME280;40903;51.638;7.528;2022-07-17T05:26:12;102142.88;;;13.81;74.11
55010;BME280;40903;51.638;7.528;2022-07-17T05:28:37;102145.84;;;13.99;72.95
55010;BME280;40903;51.638;7.528;2022-07-17T05:31:02;102142.25;;;14.19;71.39
55010;BME280;40903;51.638;7.528;2022-07-17T05:33:28;102144.09;;;14.38;71.15
55010;BME280;40903;51.638;7.528;2022-07-17T05:35:53;102142.09;;;14.59;70.73
55010;BME280;40903;51.638;7.528;2022-07-17T05:38:18;102138.97;;;14.75;69.71
55010;BME280;40903;51.638;7.528;2022-07-17T05:40:44;102129.25;;;14.93;68.55
55010;BME280;40903;51.638;7.528;2022-07-17T05:43:09;102125.84;;;15.06;67.84
55010;BME280;40903;51.638;7.528;2022-07-17T05:45:34;102125.47;;;15.22;66.66
55010;BME280;40903;51.638;7.528;2022-07-17T05:47:59;102130.56;;;15.39;65.96
55010;BME280;40903;51.638;7.528;2022-07-17T05:50:25;102132.38;;;15.53;65.45
55010;BME280;40903;51.638;7.528;2022-07-17T05:52:50;102124.84;;;15.64;63.88
55010;BME280;40903;51.638;7.528;2022-07-17T05:55:16;102138.50;;;15.74;64.19
55010;BME280;40903;51.638;7.528;2022-07-17T05:57:41;102126.53;;;15.88;63.35
55010;BME280;40903;51.638;7.528;2022-07-17T06:00:07;102130.75;;;16.04;63.18
55010;BME280;40903;51.638;7.528;2022-07-17T06:02:32;102131.94;;;16.21;62.67
55010;BME280;40903;51.638;7.528;2022-07-17T06:04:58;102130.16;;;16.35;61.88
55010;BME280;40903;51.638;7.528;2022-07-17T06:07:23;102130.19;;;16.54;61.83
55010;BME280;40903;51.638;7.528;2022-07-17T06:09:48;102125.75;;;16.76;61.21
55010;BME280;40903;51.638;7.528;2022-07-17T06:12:13;102121.66;;;16.92;59.57
55010;BME280;40903;51.638;7.528;2022-07-17T06:14:39;102135.09;;;17.12;58.85
55010;BME280;40903;51.638;7.528;2022-07-17T06:17:04;102125.47;;;17.28;58.83
55010;BME280;40903;51.638;7.528;2022-07-17T06:19:29;102135.00;;;17.54;58.56
55010;BME280;40903;51.638;7.528;2022-07-17T06:21:55;102132.69;;;17.75;57.70
55010;BME280;40903;51.638;7.528;2022-07-17T06:24:20;102130.97;;;17.92;56.96
55010;BME280;40903;51.638;7.528;2022-07-17T06:26:45;102150.53;;;18.09;55.74
55010;BME280;40903;51.638;7.528;2022-07-17T06:29:11;102148.28;;;18.24;55.15
55010;BME280;40903;51.638;7.528;2022-07-17T06:31:36;102155.59;;;18.34;54.09
55010;BME280;40903;51.638;7.528;2022-07-17T06:34:01;102155.56;;;18.47;54.08
55010;BME280;40903;51.638;7.528;2022-07-17T06:36:27;102167.13;;;18.63;53.95
55010;BME280;40903;51.638;7.528;2022-07-17T06:38:52;102158.72;;;18.81;53.32
55010;BME280;40903;51.638;7.528;2022-07-17T06:41:17;102154.56;;;19.06;52.82
55010;BME280;40903;51.638;7.528;2022-07-17T06:43:43;102149.91;;;19.28;51.80
55010;BME280;40903;51.638;7.528;2022-07-17T06:46:08;102138.13;;;19.45;50.81
55010;BME280;40903;51.638;7.528;2022-07-17T06:48:33;102130.25;;;19.60;50.58
55010;BME280;40903;51.638;7.528;2022-07-17T06:50:58;102125.91;;;19.68;50.39
55010;BME280;40903;51.638;7.528;2022-07-17T06:53:24;102124.50;;;19.79;48.84
55010;BME280;40903;51.638;7.528;2022-07-17T06:55:49;102132.69;;;19.84;49.07
55010;BME280;40903;51.638;7.528;2022-07-17T06:58:14;102140.88;;;19.97;48.29
55010;BME280;40903;51.638;7.528;2022-07-17T07:00:40;102146.38;;;20.10;48.57
55010;BME280;40903;51.638;7.528;2022-07-17T07:03:05;102158.88;;;20.38;48.77
55010;BME280;40903;51.638;7.528;2022-07-17T07:05:30;102159.44;;;20.66;48.29
55010;BME280;40903;51.638;7.528;2022-07-17T07:07:56;102161.97;;;20.84;46.52
55010;BME280;40903;51.638;7.528;2022-07-17T07:10:21;102152.69;;;20.97;47.37
55010;BME280;40903;51.638;7.528;2022-07-17T07:12:46;102154.63;;;21.05;46.87
55010;BME280;40903;51.638;7.528;2022-07-17T07:15:12;102156.25;;;20.98;46.31
55010;BME280;40903;51.638;7.528;2022-07-17T07:17:40;102141.41;;;21.02;46.47
55010;BME280;40903;51.638;7.528;2022-07-17T07:20:06;102143.22;;;20.98;46.50
55010;BME280;40903;51.638;7.528;2022-07-17T07:22:32;102130.00;;;21.04;46.81
55010;BME280;40903;51.638;7.528;2022-07-17T07:24:57;102126.09;;;21.13;46.76
55010;BME280;40903;51.638;7.528;2022-07-17T07:27:23;102113.66;;;21.11;46.25
55010;BME280;40903;51.638;7.528;2022-07-17T07:29:48;102115.97;;;21.00;46.85
55010;BME280;40903;51.638;7.528;2022-07-17T07:32:13;102112.84;;;21.02;46.00
55010;BME280;40903;51.638;7.528;2022-07-17T07:34:38;102112.84;;;21.10;45.08
55010;BME280;40903;51.638;7.528;2022-07-17T07:37:04;102124.91;;;21.31;45.99
55010;BME280;40903;51.638;7.528;2022-07-17T07:39:29;102136.94;;;21.61;45.16
55010;BME280;40903;51.638;7.528;2022-07-17T07:41:54;102133.84;;;21.79;44.98
55010;BME280;40903;51.638;7.528;2022-07-17T07:44:20;102128.38;;;22.00;45.56
55010;BME280;40903;51.638;7.528;2022-07-17T07:46:45;102130.78;;;22.18;42.52
55010;BME280;40903;51.638;7.528;2022-07-17T07:49:10;102135.41;;;22.43;43.63
55010;BME280;40903;51.638;7.528;2022-07-17T07:51:36;102138.63;;;22.74;43.97
55010;BME280;40903;51.638;7.528;2022-07-17T07:54:01;102141.31;;;22.70;40.62
55010;BME280;40903;51.638;7.528;2022-07-17T07:56:27;102153.94;;;22.88;41.20
55010;BME280;40903;51.638;7.528;2022-07-17T07:58:52;102141.75;;;23.22;41.56
55010;BME280;40903;51.638;7.528;2022-07-17T08:01:17;102149.19;;;23.50;40.53
55010;BME280;40903;51.638;7.528;2022-07-17T08:03:43;102135.59;;;23.81;41.54
55010;BME280;40903;51.638;7.528;2022-07-17T08:06:08;102137.66;;;24.17;41.18
55010;BME280;40903;51.638;7.528;2022-07-17T08:08:33;102145.69;;;24.42;39.02
55010;BME280;40903;51.638;7.528;2022-07-17T08:10:58;102151.16;;;24.74;38.42
55010;BME280;40903;51.638;7.528;2022-07-17T08:13:24;102152.19;;;24.94;38.46
55010;BME280;40903;51.638;7.528;2022-07-17T08:15:49;102151.56;;;25.00;38.04
55010;BME280;40903;51.638;7.528;2022-07-17T08:18:14;102156.22;;;25.20;37.67
55010;BME280;40903;51.638;7.528;2022-07-17T08:20:40;102151.22;;;25.41;37.11
55010;BME280;40903;51.638;7.528;2022-07-17T08:23:05;102152.09;;;25.57;37.97
55010;BME280;40903;51.638;7.528;2022-07-17T08:25:31;102173.97;;;25.83;35.65
55010;BME280;40903;51.638;7.528;2022-07-17T08:27:56;102170.34;;;26.10;34.12
55010;BME280;40903;51.638;7.528;2022-07-17T08:30:21;102172.16;;;26.33;34.45
55010;BME280;40903;51.638;7.528;2022-07-17T08:32:47;102178.31;;;26.54;35.24
55010;BME280;40903;51.638;7.528;2022-07-17T08:35:12;102192.19;;;26.66;30.37
55010;BME280;40903;51.638;7.528;2022-07-17T08:37:49;102192.19;;;26.66;31.72
55010;BME280;40903;51.638;7.528;2022-07-17T08:40:19;102185.94;;;26.72;32.25
55010;BME280;40903;51.638;7.528;2022-07-17T08:42:45;102186.72;;;26.88;33.70
55010;BME280;40903;51.638;7.528;2022-07-17T08:45:11;102191.13;;;27.05;33.34
55010;BME280;40903;51.638;7.528;2022-07-17T08:47:37;102207.03;;;27.16;30.25
55010;BME280;40903;51.638;7.528;2022-07-17T08:50:03;102191.69;;;27.10;31.15
55010;BME280;40903;51.638;7.528;2022-07-17T08:52:29;102195.63;;;27.09;29.80
55010;BME280;40903;51.638;7.528;2022-07-17T08:54:54;102178.28;;;27.19;33.40
55010;BME280;40903;51.638;7.528;2022-07-17T08:57:20;102191.56;;;27.41;31.34
55010;BME280;40903;51.638;7.528;2022-07-17T08:59:48;102188.41;;;27.62;30.20
55010;BME280;40903;51.638;7.528;2022-07-17T09:02:14;102182.78;;;27.81;32.95
55010;BME280;40903;51.638;7.528;2022-07-17T09:04:40;102193.50;;;27.75;29.81
55010;BME280;40903;51.638;7.528;2022-07-17T09:07:06;102166.16;;;27.91;33.03
55010;BME280;40903;51.638;7.528;2022-07-17T09:09:32;102177.03;;;27.93;31.05
55010;BME280;40903;51.638;7.528;2022-07-17T09:12:02;102172.03;;;28.05;31.80
55010;BME280;40903;51.638;7.528;2022-07-17T09:14:38;102175.75;;;28.32;28.70
55010;BME280;40903;51.638;7.528;2022-07-17T09:17:05;102166.88;;;28.52;30.09
55010;BME280;40903;51.638;7.528;2022-07-17T09:19:36;102168.13;;;28.54;30.47
55010;BME280;40903;51.638;7.528;2022-07-17T09:27:07;102162.47;;;28.77;29.75
55010;BME280;40903;51.638;7.528;2022-07-17T09:29:33;102161.41;;;28.88;29.27
55010;BME280;40903;51.638;7.528;2022-07-17T09:31:58;102161.78;;;29.13;29.18
55010;BME280;40903;51.638;7.528;2022-07-17T09:34:23;102165.19;;;29.25;28.66
55010;BME280;40903;51.638;7.528;2022-07-17T09:37:01;102160.34;;;29.22;28.63
55010;BME280;40903;51.638;7.528;2022-07-17T09:39:35;102165.09;;;29.18;29.04
55010;BME280;40903;51.638;7.528;2022-07-17T09:42:01;102158.81;;;29.28;28.37
55010;BME280;40903;51.638;7.528;2022-07-17T09:44:26;102154.16;;;29.43;28.45
55010;BME280;40903;51.638;7.528;2022-07-17T09:46:51;102158.94;;;29.68;26.83
55010;BME280;40903;51.638;7.528;2022-07-17T09:49:18;102153.41;;;29.79;27.15
55010;BME280;40903;51.638;7.528;2022-07-17T09:51:44;102152.81;;;29.99;27.39
55010;BME280;40903;51.638;7.528;2022-07-17T09:54:11;102151.22;;;29.98;25.77
55010;BME280;40903;51.638;7.528;2022-07-17T09:56:37;102154.72;;;29.88;27.66
55010;BME280;40903;51.638;7.528;2022-07-17T09:59:08;102148.81;;;30.00;26.77
55010;BME280;40903;51.638;7.528;2022-07-17T10:01:34;102153.75;;;30.10;24.87
55010;BME280;40903;51.638;7.528;2022-07-17T10:04:00;102157.25;;;30.00;25.00
55010;BME280;40903;51.638;7.528;2022-07-17T10:06:26;102159.09;;;29.82;23.76
55010;BME280;40903;51.638;7.528;2022-07-17T10:08:53;102158.63;;;29.80;25.76
55010;BME280;40903;51.638;7.528;2022-07-17T10:11:20;102158.25;;;29.82;26.13
55010;BME280;40903;51.638;7.528;2022-07-17T10:13:47;102140.84;;;30.06;28.43
55010;BME280;40903;51.638;7.528;2022-07-17T10:16:25;102151.91;;;30.28;27.22
55010;BME280;40903;51.638;7.528;2022-07-17T10:18:51;102160.19;;;30.58;27.13
55010;BME280;40903;51.638;7.528;2022-07-17T10:21:20;102164.41;;;30.81;24.35
55010;BME280;40903;51.638;7.528;2022-07-17T10:26:31;102164.09;;;30.93;25.27
55010;BME280;40903;51.638;7.528;2022-07-17T10:28:56;102167.53;;;30.69;23.83
55010;BME280;40903;51.638;7.528;2022-07-17T10:31:26;102162.03;;;30.86;25.16
55010;BME280;40903;51.638;7.528;2022-07-17T10:33:59;102165.88;;;30.61;24.46
55010;BME280;40903;51.638;7.528;2022-07-17T10:36:35;102161.72;;;30.48;24.80
55010;BME280;40903;51.638;7.528;2022-07-17T10:39:14;102155.25;;;30.44;24.40
55010;BME280;40903;51.638;7.528;2022-07-17T10:41:41;102157.72;;;30.49;24.26
55010;BME280;40903;51.638;7.528;2022-07-17T10:44:07;102149.91;;;30.79;26.67
55010;BME280;40903;51.638;7.528;2022-07-17T10:46:32;102159.63;;;30.88;23.85
55010;BME280;40903;51.638;7.528;2022-07-17T10:49:00;102162.91;;;31.01;23.92
55010;BME280;40903;51.638;7.528;2022-07-17T10:51:28;102150.88;;;31.07;23.67
55010;BME280;40903;51.638;7.528;2022-07-17T10:53:58;102156.19;;;31.16;24.06
55010;BME280;40903;51.638;7.528;2022-07-17T10:56:26;102152.22;;;31.31;25.94
55010;BME280;40903;51.638;7.528;2022-07-17T10:58:52;102155.03;;;31.27;23.89
55010;BME280;40903;51.638;7.528;2022-07-17T11:01:19;102149.84;;;31.47;24.05
55010;BME280;40903;51.638;7.528;2022-07-17T11:03:53;102148.69;;;31.62;23.92
55010;BME280;40903;51.638;7.528;2022-07-17T11:06:20;102171.22;;;31.41;22.39
55010;BME280;40903;51.638;7.528;2022-07-17T11:08:48;102154.31;;;31.48;25.15
55010;BME280;40903;51.638;7.528;2022-07-17T11:11:15;102147.91;;;31.61;25.40
55010;BME280;40903;51.638;7.528;2022-07-17T11:13:40;102152.81;;;31.78;24.17
55010;BME280;40903;51.638;7.528;2022-07-17T11:16:06;102156.03;;;31.70;21.91
55010;BME280;40903;51.638;7.528;2022-07-17T11:18:31;102157.69;;;31.78;24.47
55010;BME280;40903;51.638;7.528;2022-07-17T11:21:00;102161.69;;;31.80;23.00
55010;BME280;40903;51.638;7.528;2022-07-17T11:23:28;102150.03;;;31.99;23.26
55010;BME280;40903;51.638;7.528;2022-07-17T11:30:54;102162.06;;;31.68;21.28
55010;BME280;40903;51.638;7.528;2022-07-17T11:33:19;102159.31;;;31.93;22.54
55010;BME280;40903;51.638;7.528;2022-07-17T11:35:47;102157.28;;;31.93;21.74
55010;BME280;40903;51.638;7.528;2022-07-17T11:38:13;102160.94;;;32.08;22.25
55010;BME280;40903;51.638;7.528;2022-07-17T11:40:48;102155.28;;;32.15;21.04
55010;BME280;40903;51.638;7.528;2022-07-17T11:43:14;102140.78;;;32.20;22.63
55010;BME280;40903;51.638;7.528;2022-07-17T11:45:39;102146.81;;;32.04;21.43
55010;BME280;40903;51.638;7.528;2022-07-17T11:48:05;102156.06;;;31.91;21.17
55010;BME280;40903;51.638;7.528;2022-07-17T11:50:30;102152.03;;;31.78;22.08
55010;BME280;40903;51.638;7.528;2022-07-17T11:53:01;102151.63;;;31.90;22.40
55010;BME280;40903;51.638;7.528;2022-07-17T11:55:38;102142.38;;;31.96;22.50
55010;BME280;40903;51.638;7.528;2022-07-17T11:58:04;102141.56;;;32.13;21.45
55010;BME280;40903;51.638;7.528;2022-07-17T12:00:30;102144.81;;;32.01;20.79
55010;BME280;40903;51.638;7.528;2022-07-17T12:03:05;102126.66;;;32.16;22.43
55010;BME280;40903;51.638;7.528;2022-07-17T12:05:34;102125.88;;;32.33;21.72
55010;BME280;40903;51.638;7.528;2022-07-17T12:08:00;102133.09;;;32.17;20.03
55010;BME280;40903;51.638;7.528;2022-07-17T12:10:28;102126.19;;;31.69;20.22
55010;BME280;40903;51.638;7.528;2022-07-17T12:13:02;102132.22;;;31.67;19.93
55010;BME280;40903;51.638;7.528;2022-07-17T12:15:40;102129.06;;;31.97;21.24
55010;BME280;40903;51.638;7.528;2022-07-17T12:18:07;102131.88;;;31.83;20.33
55010;BME280;40903;51.638;7.528;2022-07-17T12:20:42;102125.44;;;32.10;20.71
55010;BME280;40903;51.638;7.528;2022-07-17T12:23:08;102119.78;;;32.07;20.55
55010;BME280;40903;51.638;7.528;2022-07-17T12:25:33;102129.47;;;32.06;19.65
55010;BME280;40903;51.638;7.528;2022-07-17T12:27:58;102122.22;;;31.98;20.49
55010;BME280;40903;51.638;7.528;2022-07-17T12:30:24;102114.56;;;32.16;20.34
55010;BME280;40903;51.638;7.528;2022-07-17T12:32:49;102113.78;;;32.19;20.76
55010;BME280;40903;51.638;7.528;2022-07-17T12:35:15;102118.63;;;32.25;19.77
55010;BME280;40903;51.638;7.528;2022-07-17T12:37:41;102110.50;;;32.52;20.70
55010;BME280;40903;51.638;7.528;2022-07-17T12:40:07;102112.13;;;32.77;20.20
55010;BME280;40903;51.638;7.528;2022-07-17T12:42:33;102118.19;;;32.83;19.83
55010;BME280;40903;51.638;7.528;2022-07-17T12:44:58;102116.13;;;32.66;19.14
55010;BME280;40903;51.638;7.528;2022-07-17T12:47:23;102102.84;;;32.63;20.27
55010;BME280;40903;51.638;7.528;2022-07-17T12:49:49;102103.63;;;32.84;20.69
55010;BME280;40903;51.638;7.528;2022-07-17T12:52:14;102095.47;;;32.96;20.09
55010;BME280;40903;51.638;7.528;2022-07-17T12:54:39;102106.34;;;33.08;19.55
55010;BME280;40903;51.638;7.528;2022-07-17T12:57:05;102107.25;;;32.64;19.20